SPZO Airport Information

Runway Information
Runway 10 Length 11146 ft width 148 ft
Elevation 10860 ft Threshold 0 ft Heading 96
Runway 28 Length 11146 ft Width 148 ft
Elevation 10702 ft Threshold 0 ft Heading 276
Airport Frequencies
Type APP Name CUSCO APP Frequency 120.6 MHZ
Type ATIS Name ATIS Frequency 127 MHZ
Type GND Name GND Frequency 121.9 MHZ
Type TWR Name CUSCO TWR Frequency 118.1 MHZ
Airport Navaids
Type VOR-DME Name Urcos Frequency 115600 KHZ
Type VOR-DME Name Cusco Frequency 114900 KHZ
Airport Weather Information & NOTAM
ADDS - METARS form results

(2323 UTC 24 March 2019)
Data provider http://aviationweather.gov/metar/data/
 
METAR text: SPZO 242300Z 04003KT 350V080 9999 -RA SCT046 BKN100 13/08 Q1031 NOSIG RMK BIRD HAZARD RWY 28 PP002
Conditions at: SPZO (CUZCO/VELAZCO AS, PE) observed 2300 UTC 24 March 2019
Temperature: 13.0°C (55°F)
Dewpoint: 8.0°C (46°F) [RH = 72%]
Pressure (altimeter): 30.44 inches Hg (1031.0 mb)
Winds: from the NE (40 degrees) at 3 MPH (3 knots; 1.5 m/s)
Visibility: 6 or more miles (10+ km)
Ceiling: 10000 feet AGL
Clouds: scattered clouds at 4600 feet AGL
broken clouds at 10000 feet AGL
Weather: -RA  (light rain)

METAR text: SPZO 242230Z 15003KT 080V230 9999 -DZ SCT046 BKN100 14/08 Q1031 NOSIG RMK BR QUAD E BIRD HAZARD RWY 28
Conditions at: SPZO (CUZCO/VELAZCO AS, PE) observed 2230 UTC 24 March 2019
Temperature: 14.0°C (57°F)
Dewpoint: 8.0°C (46°F) [RH = 67%]
Pressure (altimeter): 30.44 inches Hg (1031.0 mb)
Winds: from the SSE (150 degrees) at 3 MPH (3 knots; 1.5 m/s)
Visibility: 6 or more miles (10+ km)
Ceiling: 10000 feet AGL
Clouds: scattered clouds at 4600 feet AGL
broken clouds at 10000 feet AGL
Weather: -DZ  (light drizzle)